sensor_id;sensor_type;location;lat;lon;timestamp;temperature;humidity
8664;DHT22;4369;47.842;13.096;2022-07-29T00:00:38;20.30;99.90
8664;DHT22;4369;47.842;13.096;2022-07-29T00:03:05;20.30;99.90
8664;DHT22;4369;47.842;13.096;2022-07-29T00:05:33;20.30;99.90
8664;DHT22;4369;47.842;13.096;2022-07-29T00:08:00;20.20;99.90
8664;DHT22;4369;47.842;13.096;2022-07-29T00:10:27;20.20;99.90
8664;DHT22;4369;47.842;13.096;2022-07-29T00:13:00;20.10;99.90
8664;DHT22;4369;47.842;13.096;2022-07-29T00:15:28;20.10;99.90
8664;DHT22;4369;47.842;13.096;2022-07-29T00:17:54;20.10;99.90
8664;DHT22;4369;47.842;13.096;2022-07-29T00:20:21;20.10;99.90
8664;DHT22;4369;47.842;13.096;2022-07-29T00:22:49;20.10;99.90
8664;DHT22;4369;47.842;13.096;2022-07-29T00:25:16;20.10;99.90
8664;DHT22;4369;47.842;13.096;2022-07-29T00:27:43;20.10;99.90
8664;DHT22;4369;47.842;13.096;2022-07-29T00:30:11;20.20;99.90
8664;DHT22;4369;47.842;13.096;2022-07-29T00:32:38;20.10;99.90
8664;DHT22;4369;47.842;13.096;2022-07-29T00:35:06;20.00;99.90
8664;DHT22;4369;47.842;13.096;2022-07-29T00:37:52;19.90;99.90
8664;DHT22;4369;47.842;13.096;2022-07-29T00:40:20;19.90;99.90
8664;DHT22;4369;47.842;13.096;2022-07-29T00:42:48;19.90;99.90
8664;DHT22;4369;47.842;13.096;2022-07-29T00:45:16;19.90;99.90
8664;DHT22;4369;47.842;13.096;2022-07-29T00:47:43;19.90;99.90
8664;DHT22;4369;47.842;13.096;2022-07-29T00:50:11;19.90;99.90
8664;DHT22;4369;47.842;13.096;2022-07-29T00:52:40;19.90;99.90
8664;DHT22;4369;47.842;13.096;2022-07-29T00:55:11;19.90;99.90
8664;DHT22;4369;47.842;13.096;2022-07-29T00:57:38;19.90;99.90
8664;DHT22;4369;47.842;13.096;2022-07-29T01:00:08;19.90;99.90
8664;DHT22;4369;47.842;13.096;2022-07-29T01:02:35;19.90;99.90
8664;DHT22;4369;47.842;13.096;2022-07-29T01:05:03;19.90;99.90
8664;DHT22;4369;47.842;13.096;2022-07-29T01:07:31;20.00;99.90
8664;DHT22;4369;47.842;13.096;2022-07-29T01:09:58;20.00;99.90
8664;DHT22;4369;47.842;13.096;2022-07-29T01:12:28;20.00;99.90
8664;DHT22;4369;47.842;13.096;2022-07-29T01:14:59;19.80;99.90
8664;DHT22;4369;47.842;13.096;2022-07-29T01:17:31;19.80;99.90
8664;DHT22;4369;47.842;13.096;2022-07-29T01:20:03;19.70;99.90
8664;DHT22;4369;47.842;13.096;2022-07-29T01:22:42;19.70;99.90
8664;DHT22;4369;47.842;13.096;2022-07-29T01:25:34;19.80;99.90
8664;DHT22;4369;47.842;13.096;2022-07-29T01:30:51;19.80;99.90
8664;DHT22;4369;47.842;13.096;2022-07-29T01:33:21;19.70;99.90
8664;DHT22;4369;47.842;13.096;2022-07-29T01:36:25;19.70;99.90
8664;DHT22;4369;47.842;13.096;2022-07-29T01:38:59;19.70;99.90
8664;DHT22;4369;47.842;13.096;2022-07-29T01:41:30;19.70;99.90
8664;DHT22;4369;47.842;13.096;2022-07-29T01:44:01;19.70;99.90
8664;DHT22;4369;47.842;13.096;2022-07-29T01:46:33;19.60;99.90
8664;DHT22;4369;47.842;13.096;2022-07-29T01:49:07;19.60;99.90
8664;DHT22;4369;47.842;13.096;2022-07-29T01:51:41;19.60;99.90
8664;DHT22;4369;47.842;13.096;2022-07-29T01:54:14;19.60;99.90
8664;DHT22;4369;47.842;13.096;2022-07-29T01:56:43;19.50;99.90
8664;DHT22;4369;47.842;13.096;2022-07-29T01:59:11;19.50;99.90
8664;DHT22;4369;47.842;13.096;2022-07-29T02:01:41;19.60;99.90
8664;DHT22;4369;47.842;13.096;2022-07-29T02:04:10;19.60;99.90
8664;DHT22;4369;47.842;13.096;2022-07-29T02:06:40;19.60;99.90
8664;DHT22;4369;47.842;13.096;2022-07-29T02:09:09;19.60;99.90
8664;DHT22;4369;47.842;13.096;2022-07-29T02:11:38;19.60;99.90
8664;DHT22;4369;47.842;13.096;2022-07-29T02:14:07;19.60;99.90
8664;DHT22;4369;47.842;13.096;2022-07-29T02:16:36;19.60;99.90
8664;DHT22;4369;47.842;13.096;2022-07-29T02:19:06;19.60;99.90
8664;DHT22;4369;47.842;13.096;2022-07-29T02:21:35;19.60;99.90
8664;DHT22;4369;47.842;13.096;2022-07-29T02:24:02;19.60;99.90
8664;DHT22;4369;47.842;13.096;2022-07-29T02:26:31;19.60;99.90
8664;DHT22;4369;47.842;13.096;2022-07-29T02:28:59;19.60;99.90
8664;DHT22;4369;47.842;13.096;2022-07-29T02:31:31;19.60;99.90
8664;DHT22;4369;47.842;13.096;2022-07-29T02:34:00;19.60;99.90
8664;DHT22;4369;47.842;13.096;2022-07-29T02:36:30;19.60;99.90
8664;DHT22;4369;47.842;13.096;2022-07-29T02:38:58;19.60;99.90
8664;DHT22;4369;47.842;13.096;2022-07-29T02:41:28;19.60;99.90
8664;DHT22;4369;47.842;13.096;2022-07-29T02:43:58;19.60;99.90
8664;DHT22;4369;47.842;13.096;2022-07-29T02:46:30;19.60;99.90
8664;DHT22;4369;47.842;13.096;2022-07-29T02:49:01;19.60;99.90
8664;DHT22;4369;47.842;13.096;2022-07-29T02:51:36;19.60;99.90
8664;DHT22;4369;47.842;13.096;2022-07-29T02:54:07;19.50;99.90
8664;DHT22;4369;47.842;13.096;2022-07-29T02:56:36;19.50;99.90
8664;DHT22;4369;47.842;13.096;2022-07-29T02:59:09;19.50;99.90
8664;DHT22;4369;47.842;13.096;2022-07-29T03:01:40;19.50;99.90
8664;DHT22;4369;47.842;13.096;2022-07-29T03:04:09;19.50;99.90
8664;DHT22;4369;47.842;13.096;2022-07-29T03:06:40;19.40;99.90
8664;DHT22;4369;47.842;13.096;2022-07-29T03:09:10;19.40;99.90
8664;DHT22;4369;47.842;13.096;2022-07-29T03:11:38;19.40;99.90
8664;DHT22;4369;47.842;13.096;2022-07-29T03:14:07;19.30;99.90
8664;DHT22;4369;47.842;13.096;2022-07-29T03:16:34;19.20;99.90
8664;DHT22;4369;47.842;13.096;2022-07-29T03:19:03;19.20;99.90
8664;DHT22;4369;47.842;13.096;2022-07-29T03:21:30;19.10;99.90
8664;DHT22;4369;47.842;13.096;2022-07-29T03:23:59;19.10;99.90
8664;DHT22;4369;47.842;13.096;2022-07-29T03:26:25;19.20;99.90
8664;DHT22;4369;47.842;13.096;2022-07-29T03:28:52;19.10;99.90
8664;DHT22;4369;47.842;13.096;2022-07-29T03:31:19;19.10;99.90
8664;DHT22;4369;47.842;13.096;2022-07-29T03:33:46;19.10;99.90
8664;DHT22;4369;47.842;13.096;2022-07-29T03:36:13;19.10;99.90
8664;DHT22;4369;47.842;13.096;2022-07-29T03:38:40;19.10;99.90
8664;DHT22;4369;47.842;13.096;2022-07-29T03:41:11;19.10;99.90
8664;DHT22;4369;47.842;13.096;2022-07-29T03:43:40;19.10;99.90
8664;DHT22;4369;47.842;13.096;2022-07-29T03:46:10;19.10;99.90
8664;DHT22;4369;47.842;13.096;2022-07-29T03:48:42;19.10;99.90
8664;DHT22;4369;47.842;13.096;2022-07-29T03:51:09;19.10;99.90
8664;DHT22;4369;47.842;13.096;2022-07-29T03:53:36;19.10;99.90
8664;DHT22;4369;47.842;13.096;2022-07-29T03:56:05;19.10;99.90
8664;DHT22;4369;47.842;13.096;2022-07-29T03:58:34;19.10;99.90
8664;DHT22;4369;47.842;13.096;2022-07-29T04:01:02;19.10;99.90
8664;DHT22;4369;47.842;13.096;2022-07-29T04:03:31;19.10;99.90
8664;DHT22;4369;47.842;13.096;2022-07-29T04:05:59;19.10;99.90
8664;DHT22;4369;47.842;13.096;2022-07-29T04:08:26;19.10;99.90
8664;DHT22;4369;47.842;13.096;2022-07-29T04:10:53;19.10;99.90
8664;DHT22;4369;47.842;13.096;2022-07-29T04:13:20;19.20;99.90
8664;DHT22;4369;47.842;13.096;2022-07-29T04:15:48;19.20;99.90
8664;DHT22;4369;47.842;13.096;2022-07-29T04:18:15;19.20;99.90
8664;DHT22;4369;47.842;13.096;2022-07-29T04:20:42;19.20;99.90
8664;DHT22;4369;47.842;13.096;2022-07-29T04:23:09;19.30;99.90
8664;DHT22;4369;47.842;13.096;2022-07-29T04:25:37;19.40;99.90
8664;DHT22;4369;47.842;13.096;2022-07-29T04:28:04;19.40;99.90
8664;DHT22;4369;47.842;13.096;2022-07-29T04:30:32;19.50;99.90
8664;DHT22;4369;47.842;13.096;2022-07-29T04:33:02;19.50;99.90
8664;DHT22;4369;47.842;13.096;2022-07-29T04:35:30;19.60;99.90
8664;DHT22;4369;47.842;13.096;2022-07-29T04:37:57;19.60;99.90
8664;DHT22;4369;47.842;13.096;2022-07-29T04:40:24;19.60;99.90
8664;DHT22;4369;47.842;13.096;2022-07-29T04:42:51;19.60;99.90
8664;DHT22;4369;47.842;13.096;2022-07-29T04:45:18;19.60;99.90
8664;DHT22;4369;47.842;13.096;2022-07-29T04:47:44;19.60;99.90
8664;DHT22;4369;47.842;13.096;2022-07-29T04:50:13;19.60;99.90
8664;DHT22;4369;47.842;13.096;2022-07-29T04:52:40;19.50;99.90
8664;DHT22;4369;47.842;13.096;2022-07-29T04:55:07;19.60;99.90
8664;DHT22;4369;47.842;13.096;2022-07-29T04:57:34;19.60;99.90
8664;DHT22;4369;47.842;13.096;2022-07-29T05:00:01;19.60;99.90
8664;DHT22;4369;47.842;13.096;2022-07-29T05:02:28;19.60;99.90
8664;DHT22;4369;47.842;13.096;2022-07-29T05:04:55;19.60;99.90
8664;DHT22;4369;47.842;13.096;2022-07-29T05:07:23;19.70;99.90
8664;DHT22;4369;47.842;13.096;2022-07-29T05:09:50;19.70;99.90
8664;DHT22;4369;47.842;13.096;2022-07-29T05:12:18;19.70;99.90
8664;DHT22;4369;47.842;13.096;2022-07-29T05:14:45;19.70;99.90
8664;DHT22;4369;47.842;13.096;2022-07-29T05:17:12;19.70;99.90
8664;DHT22;4369;47.842;13.096;2022-07-29T05:19:39;19.80;99.90
8664;DHT22;4369;47.842;13.096;2022-07-29T05:22:06;19.80;99.90
8664;DHT22;4369;47.842;13.096;2022-07-29T05:24:34;19.80;99.90
8664;DHT22;4369;47.842;13.096;2022-07-29T05:27:02;19.80;99.90
8664;DHT22;4369;47.842;13.096;2022-07-29T05:29:29;19.90;99.90
8664;DHT22;4369;47.842;13.096;2022-07-29T05:31:56;20.10;99.90
8664;DHT22;4369;47.842;13.096;2022-07-29T05:34:22;20.10;99.90
8664;DHT22;4369;47.842;13.096;2022-07-29T05:36:50;20.20;99.90
8664;DHT22;4369;47.842;13.096;2022-07-29T05:39:17;20.20;99.90
8664;DHT22;4369;47.842;13.096;2022-07-29T05:41:45;20.20;99.90
8664;DHT22;4369;47.842;13.096;2022-07-29T05:44:12;20.30;99.90
8664;DHT22;4369;47.842;13.096;2022-07-29T05:46:39;20.30;99.90
8664;DHT22;4369;47.842;13.096;2022-07-29T05:49:08;20.40;99.90
8664;DHT22;4369;47.842;13.096;2022-07-29T05:51:35;20.40;99.90
8664;DHT22;4369;47.842;13.096;2022-07-29T05:54:02;20.30;99.90
8664;DHT22;4369;47.842;13.096;2022-07-29T05:56:29;20.30;99.90
8664;DHT22;4369;47.842;13.096;2022-07-29T05:58:57;20.40;99.90
8664;DHT22;4369;47.842;13.096;2022-07-29T06:01:24;20.40;99.90
8664;DHT22;4369;47.842;13.096;2022-07-29T06:03:51;20.50;99.90
8664;DHT22;4369;47.842;13.096;2022-07-29T06:06:18;20.50;99.90
8664;DHT22;4369;47.842;13.096;2022-07-29T06:08:45;20.50;99.90
8664;DHT22;4369;47.842;13.096;2022-07-29T06:11:12;20.60;99.90
8664;DHT22;4369;47.842;13.096;2022-07-29T06:13:39;20.80;99.90
8664;DHT22;4369;47.842;13.096;2022-07-29T06:16:07;20.80;99.90
8664;DHT22;4369;47.842;13.096;2022-07-29T06:18:34;21.00;99.90
8664;DHT22;4369;47.842;13.096;2022-07-29T06:21:00;21.10;99.90
8664;DHT22;4369;47.842;13.096;2022-07-29T06:23:27;21.00;99.90
8664;DHT22;4369;47.842;13.096;2022-07-29T06:25:54;20.90;99.90
8664;DHT22;4369;47.842;13.096;2022-07-29T06:28:21;21.00;99.90
8664;DHT22;4369;47.842;13.096;2022-07-29T06:30:48;21.10;99.90
8664;DHT22;4369;47.842;13.096;2022-07-29T06:33:19;21.20;99.90
8664;DHT22;4369;47.842;13.096;2022-07-29T06:35:46;21.20;99.90
8664;DHT22;4369;47.842;13.096;2022-07-29T06:38:15;21.20;99.90
8664;DHT22;4369;47.842;13.096;2022-07-29T06:40:42;21.10;99.90
8664;DHT22;4369;47.842;13.096;2022-07-29T06:43:28;21.20;99.90
8664;DHT22;4369;47.842;13.096;2022-07-29T06:45:58;21.30;99.90
8664;DHT22;4369;47.842;13.096;2022-07-29T06:48:26;21.40;99.90
8664;DHT22;4369;47.842;13.096;2022-07-29T06:50:53;21.40;99.90
8664;DHT22;4369;47.842;13.096;2022-07-29T06:53:20;21.40;99.90
8664;DHT22;4369;47.842;13.096;2022-07-29T06:55:47;21.30;99.90
8664;DHT22;4369;47.842;13.096;2022-07-29T06:58:14;21.30;99.90
8664;DHT22;4369;47.842;13.096;2022-07-29T07:00:43;21.30;99.90
8664;DHT22;4369;47.842;13.096;2022-07-29T07:03:10;21.20;99.90
8664;DHT22;4369;47.842;13.096;2022-07-29T07:05:38;21.20;99.90
8664;DHT22;4369;47.842;13.096;2022-07-29T07:08:05;21.10;99.90
8664;DHT22;4369;47.842;13.096;2022-07-29T07:10:33;21.10;99.90
8664;DHT22;4369;47.842;13.096;2022-07-29T07:13:01;21.20;99.90
8664;DHT22;4369;47.842;13.096;2022-07-29T07:15:28;21.10;99.90
8664;DHT22;4369;47.842;13.096;2022-07-29T07:17:54;21.20;99.90
8664;DHT22;4369;47.842;13.096;2022-07-29T07:20:22;21.40;99.90
8664;DHT22;4369;47.842;13.096;2022-07-29T07:22:51;21.50;99.90
8664;DHT22;4369;47.842;13.096;2022-07-29T07:25:17;21.70;99.90
8664;DHT22;4369;47.842;13.096;2022-07-29T07:27:44;21.90;99.90
8664;DHT22;4369;47.842;13.096;2022-07-29T07:30:12;22.00;99.90
8664;DHT22;4369;47.842;13.096;2022-07-29T07:32:39;22.10;99.90
8664;DHT22;4369;47.842;13.096;2022-07-29T07:35:08;22.30;99.90
8664;DHT22;4369;47.842;13.096;2022-07-29T07:37:35;22.40;99.90
8664;DHT22;4369;47.842;13.096;2022-07-29T07:40:05;22.50;99.90
8664;DHT22;4369;47.842;13.096;2022-07-29T07:42:31;22.70;99.90
8664;DHT22;4369;47.842;13.096;2022-07-29T07:44:58;22.80;99.90
8664;DHT22;4369;47.842;13.096;2022-07-29T07:47:25;22.80;99.90
8664;DHT22;4369;47.842;13.096;2022-07-29T07:49:52;22.80;99.90
8664;DHT22;4369;47.842;13.096;2022-07-29T07:52:20;22.80;99.90
8664;DHT22;4369;47.842;13.096;2022-07-29T07:54:48;22.90;99.90
8664;DHT22;4369;47.842;13.096;2022-07-29T07:57:16;23.10;99.90
8664;DHT22;4369;47.842;13.096;2022-07-29T07:59:43;23.30;99.90
8664;DHT22;4369;47.842;13.096;2022-07-29T08:02:10;23.40;99.90
8664;DHT22;4369;47.842;13.096;2022-07-29T08:04:37;23.50;99.90
8664;DHT22;4369;47.842;13.096;2022-07-29T08:07:06;23.60;99.90
8664;DHT22;4369;47.842;13.096;2022-07-29T08:09:33;23.60;99.90
8664;DHT22;4369;47.842;13.096;2022-07-29T08:12:00;23.70;99.90
8664;DHT22;4369;47.842;13.096;2022-07-29T08:14:30;23.80;99.90
8664;DHT22;4369;47.842;13.096;2022-07-29T08:16:57;23.90;99.90
8664;DHT22;4369;47.842;13.096;2022-07-29T08:19:24;24.00;99.90
8664;DHT22;4369;47.842;13.096;2022-07-29T08:21:51;24.10;99.90
8664;DHT22;4369;47.842;13.096;2022-07-29T08:24:18;24.10;99.90
8664;DHT22;4369;47.842;13.096;2022-07-29T08:27:03;24.20;99.90
8664;DHT22;4369;47.842;13.096;2022-07-29T08:29:31;24.40;99.90
8664;DHT22;4369;47.842;13.096;2022-07-29T08:31:58;24.50;99.90
8664;DHT22;4369;47.842;13.096;2022-07-29T08:34:25;24.60;99.90
8664;DHT22;4369;47.842;13.096;2022-07-29T08:36:52;24.60;99.90
8664;DHT22;4369;47.842;13.096;2022-07-29T08:39:19;24.30;99.90
8664;DHT22;4369;47.842;13.096;2022-07-29T08:41:45;24.30;99.90
8664;DHT22;4369;47.842;13.096;2022-07-29T08:44:13;24.30;99.90
8664;DHT22;4369;47.842;13.096;2022-07-29T08:46:43;24.40;99.90
8664;DHT22;4369;47.842;13.096;2022-07-29T08:49:10;24.60;99.90
8664;DHT22;4369;47.842;13.096;2022-07-29T08:51:39;24.70;99.90
8664;DHT22;4369;47.842;13.096;2022-07-29T08:54:37;24.70;99.90
8664;DHT22;4369;47.842;13.096;2022-07-29T08:57:05;24.90;99.90
8664;DHT22;4369;47.842;13.096;2022-07-29T08:59:42;24.80;99.90
8664;DHT22;4369;47.842;13.096;2022-07-29T09:02:19;24.90;99.90
8664;DHT22;4369;47.842;13.096;2022-07-29T09:04:47;25.10;99.90
8664;DHT22;4369;47.842;13.096;2022-07-29T09:07:15;25.10;99.90
8664;DHT22;4369;47.842;13.096;2022-07-29T09:09:43;25.20;99.90
8664;DHT22;4369;47.842;13.096;2022-07-29T09:12:10;25.20;99.90
8664;DHT22;4369;47.842;13.096;2022-07-29T09:14:38;25.30;99.90
8664;DHT22;4369;47.842;13.096;2022-07-29T09:17:05;25.40;99.90
8664;DHT22;4369;47.842;13.096;2022-07-29T09:19:35;25.50;99.90
8664;DHT22;4369;47.842;13.096;2022-07-29T09:22:04;25.50;99.90
8664;DHT22;4369;47.842;13.096;2022-07-29T09:24:39;25.70;99.90
8664;DHT22;4369;47.842;13.096;2022-07-29T09:27:19;26.00;99.90
8664;DHT22;4369;47.842;13.096;2022-07-29T09:29:46;26.10;99.90
8664;DHT22;4369;47.842;13.096;2022-07-29T09:32:13;26.30;99.90
8664;DHT22;4369;47.842;13.096;2022-07-29T09:34:42;26.40;99.90
8664;DHT22;4369;47.842;13.096;2022-07-29T09:37:09;26.50;99.90
8664;DHT22;4369;47.842;13.096;2022-07-29T09:39:38;26.70;99.90
8664;DHT22;4369;47.842;13.096;2022-07-29T09:42:11;26.90;99.60
8664;DHT22;4369;47.842;13.096;2022-07-29T09:44:46;26.80;99.90
8664;DHT22;4369;47.842;13.096;2022-07-29T09:47:14;27.00;99.50
8664;DHT22;4369;47.842;13.096;2022-07-29T09:49:53;27.10;99.80
8664;DHT22;4369;47.842;13.096;2022-07-29T09:52:21;27.20;97.40
8664;DHT22;4369;47.842;13.096;2022-07-29T09:54:48;27.30;96.20
8664;DHT22;4369;47.842;13.096;2022-07-29T09:57:23;27.40;96.30
8664;DHT22;4369;47.842;13.096;2022-07-29T09:59:58;27.60;96.30
8664;DHT22;4369;47.842;13.096;2022-07-29T10:02:29;27.90;95.70
8664;DHT22;4369;47.842;13.096;2022-07-29T10:04:58;28.00;94.20
8664;DHT22;4369;47.842;13.096;2022-07-29T10:07:25;28.00;95.20
8664;DHT22;4369;47.842;13.096;2022-07-29T10:09:54;28.20;93.40
8664;DHT22;4369;47.842;13.096;2022-07-29T10:12:22;28.50;91.40
8664;DHT22;4369;47.842;13.096;2022-07-29T10:14:49;28.80;90.80
8664;DHT22;4369;47.842;13.096;2022-07-29T10:17:17;29.30;90.00
8664;DHT22;4369;47.842;13.096;2022-07-29T10:19:45;29.30;87.40
8664;DHT22;4369;47.842;13.096;2022-07-29T10:22:13;29.40;84.60
8664;DHT22;4369;47.842;13.096;2022-07-29T10:24:40;29.50;83.70
8664;DHT22;4369;47.842;13.096;2022-07-29T10:27:08;29.50;85.30
8664;DHT22;4369;47.842;13.096;2022-07-29T10:29:35;29.20;83.10
8664;DHT22;4369;47.842;13.096;2022-07-29T10:35:25;29.60;82.50
8664;DHT22;4369;47.842;13.096;2022-07-29T10:38:10;29.70;82.50
8664;DHT22;4369;47.842;13.096;2022-07-29T10:40:49;29.80;85.50
8664;DHT22;4369;47.842;13.096;2022-07-29T10:43:40;29.90;81.60
8664;DHT22;4369;47.842;13.096;2022-07-29T10:46:08;29.80;79.00
8664;DHT22;4369;47.842;13.096;2022-07-29T10:49:10;29.60;78.90
8664;DHT22;4369;47.842;13.096;2022-07-29T10:51:54;29.50;76.60
8664;DHT22;4369;47.842;13.096;2022-07-29T10:57:20;29.20;77.30
8664;DHT22;4369;47.842;13.096;2022-07-29T10:59:48;29.80;78.00
8664;DHT22;4369;47.842;13.096;2022-07-29T11:02:41;29.80;70.40
8664;DHT22;4369;47.842;13.096;2022-07-29T11:05:10;30.10;72.70
8664;DHT22;4369;47.842;13.096;2022-07-29T11:07:39;30.00;67.90
8664;DHT22;4369;47.842;13.096;2022-07-29T11:10:23;29.70;64.70
8664;DHT22;4369;47.842;13.096;2022-07-29T11:12:51;29.60;65.80
8664;DHT22;4369;47.842;13.096;2022-07-29T11:15:20;29.40;65.60
8664;DHT22;4369;47.842;13.096;2022-07-29T11:18:06;29.60;67.60
8664;DHT22;4369;47.842;13.096;2022-07-29T11:20:35;29.90;63.20
8664;DHT22;4369;47.842;13.096;2022-07-29T11:23:18;29.90;65.90
8664;DHT22;4369;47.842;13.096;2022-07-29T11:25:45;29.70;64.80
8664;DHT22;4369;47.842;13.096;2022-07-29T11:28:17;29.80;69.10
8664;DHT22;4369;47.842;13.096;2022-07-29T11:34:18;29.70;65.60
8664;DHT22;4369;47.842;13.096;2022-07-29T11:37:17;29.60;67.40
8664;DHT22;4369;47.842;13.096;2022-07-29T11:39:46;29.80;65.90
8664;DHT22;4369;47.842;13.096;2022-07-29T11:42:44;29.90;67.20
8664;DHT22;4369;47.842;13.096;2022-07-29T11:45:17;30.40;66.80
8664;DHT22;4369;47.842;13.096;2022-07-29T11:47:53;30.40;65.60
8664;DHT22;4369;47.842;13.096;2022-07-29T11:50:32;30.50;68.50
8664;DHT22;4369;47.842;13.096;2022-07-29T11:53:00;30.70;65.60
8664;DHT22;4369;47.842;13.096;2022-07-29T11:55:28;30.60;69.00
8664;DHT22;4369;47.842;13.096;2022-07-29T11:58:00;30.70;71.80
8664;DHT22;4369;47.842;13.096;2022-07-29T12:00:30;30.90;73.20
8664;DHT22;4369;47.842;13.096;2022-07-29T12:02:58;31.20;70.80
8664;DHT22;4369;47.842;13.096;2022-07-29T12:05:34;31.30;66.30
8664;DHT22;4369;47.842;13.096;2022-07-29T12:08:12;31.10;67.10
8664;DHT22;4369;47.842;13.096;2022-07-29T12:10:41;31.20;66.00
8664;DHT22;4369;47.842;13.096;2022-07-29T12:13:09;31.30;61.20
8664;DHT22;4369;47.842;13.096;2022-07-29T12:15:37;30.90;61.80
8664;DHT22;4369;47.842;13.096;2022-07-29T12:18:15;30.80;64.00
8664;DHT22;4369;47.842;13.096;2022-07-29T12:20:43;30.60;68.00
8664;DHT22;4369;47.842;13.096;2022-07-29T12:23:11;30.30;64.10
8664;DHT22;4369;47.842;13.096;2022-07-29T12:25:40;30.20;63.50
8664;DHT22;4369;47.842;13.096;2022-07-29T12:28:09;30.60;65.50
8664;DHT22;4369;47.842;13.096;2022-07-29T12:30:44;30.70;66.00
8664;DHT22;4369;47.842;13.096;2022-07-29T12:33:16;30.80;68.70
8664;DHT22;4369;47.842;13.096;2022-07-29T12:35:46;30.90;68.90
8664;DHT22;4369;47.842;13.096;2022-07-29T12:38:14;31.20;65.80
8664;DHT22;4369;47.842;13.096;2022-07-29T12:40:42;31.60;65.90
8664;DHT22;4369;47.842;13.096;2022-07-29T12:43:11;31.50;64.30
8664;DHT22;4369;47.842;13.096;2022-07-29T12:45:39;31.20;66.40
8664;DHT22;4369;47.842;13.096;2022-07-29T12:48:08;31.10;63.90
8664;DHT22;4369;47.842;13.096;2022-07-29T12:50:36;31.10;62.40
8664;DHT22;4369;47.842;13.096;2022-07-29T12:53:10;31.20;63.20
8664;DHT22;4369;47.842;13.096;2022-07-29T12:55:44;31.40;62.50
8664;DHT22;4369;47.842;13.096;2022-07-29T12:58:25;31.80;60.00
8664;DHT22;4369;47.842;13.096;2022-07-29T13:01:03;31.90;61.70
8664;DHT22;4369;47.842;13.096;2022-07-29T13:03:43;32.10;62.00
8664;DHT22;4369;47.842;13.096;2022-07-29T13:06:28;32.50;59.40
8664;DHT22;4369;47.842;13.096;2022-07-29T13:09:00;33.10;57.20
8664;DHT22;4369;47.842;13.096;2022-07-29T13:11:29;33.20;54.90
8664;DHT22;4369;47.842;13.096;2022-07-29T13:13:56;33.20;56.80
8664;DHT22;4369;47.842;13.096;2022-07-29T13:16:23;33.00;58.00
8664;DHT22;4369;47.842;13.096;2022-07-29T13:19:03;33.10;56.10
8664;DHT22;4369;47.842;13.096;2022-07-29T13:21:30;33.60;55.30
8664;DHT22;4369;47.842;13.096;2022-07-29T13:23:57;34.00;56.80
8664;DHT22;4369;47.842;13.096;2022-07-29T13:26:24;33.80;53.80
8664;DHT22;4369;47.842;13.096;2022-07-29T13:28:50;34.20;52.40
8664;DHT22;4369;47.842;13.096;2022-07-29T13:31:17;34.80;50.40
8664;DHT22;4369;47.842;13.096;2022-07-29T13:33:44;35.00;49.70
8664;DHT22;4369;47.842;13.096;2022-07-29T13:36:12;35.80;48.40
8664;DHT22;4369;47.842;13.096;2022-07-29T13:38:39;36.00;47.90
8664;DHT22;4369;47.842;13.096;2022-07-29T13:41:06;36.60;46.60
8664;DHT22;4369;47.842;13.096;2022-07-29T13:43:33;36.90;46.80
8664;DHT22;4369;47.842;13.096;2022-07-29T13:46:00;37.70;49.50
8664;DHT22;4369;47.842;13.096;2022-07-29T13:48:27;38.90;49.70
8664;DHT22;4369;47.842;13.096;2022-07-29T13:50:53;40.90;42.90
8664;DHT22;4369;47.842;13.096;2022-07-29T13:53:22;43.20;38.00
8664;DHT22;4369;47.842;13.096;2022-07-29T13:55:48;43.50;36.70
8664;DHT22;4369;47.842;13.096;2022-07-29T13:58:16;43.80;34.60
8664;DHT22;4369;47.842;13.096;2022-07-29T14:00:43;43.50;35.20
8664;DHT22;4369;47.842;13.096;2022-07-29T14:03:11;44.80;33.80
8664;DHT22;4369;47.842;13.096;2022-07-29T14:05:37;46.90;32.50
8664;DHT22;4369;47.842;13.096;2022-07-29T14:08:04;48.70;30.90
8664;DHT22;4369;47.842;13.096;2022-07-29T14:10:33;49.30;32.50
8664;DHT22;4369;47.842;13.096;2022-07-29T14:12:59;50.70;29.50
8664;DHT22;4369;47.842;13.096;2022-07-29T14:15:26;50.80;28.80
8664;DHT22;4369;47.842;13.096;2022-07-29T14:17:53;48.40;29.70
8664;DHT22;4369;47.842;13.096;2022-07-29T14:20:20;45.00;31.00
8664;DHT22;4369;47.842;13.096;2022-07-29T14:22:47;44.60;32.40
8664;DHT22;4369;47.842;13.096;2022-07-29T14:25:13;44.40;30.00
8664;DHT22;4369;47.842;13.096;2022-07-29T14:27:42;46.30;32.40
8664;DHT22;4369;47.842;13.096;2022-07-29T14:30:43;48.00;29.80
8664;DHT22;4369;47.842;13.096;2022-07-29T14:33:09;49.60;28.10
8664;DHT22;4369;47.842;13.096;2022-07-29T14:35:36;49.30;27.60
8664;DHT22;4369;47.842;13.096;2022-07-29T14:38:03;49.30;28.10
8664;DHT22;4369;47.842;13.096;2022-07-29T14:40:30;46.40;28.10
8664;DHT22;4369;47.842;13.096;2022-07-29T14:42:58;44.30;31.80
8664;DHT22;4369;47.842;13.096;2022-07-29T14:45:25;41.70;33.00
8664;DHT22;4369;47.842;13.096;2022-07-29T14:47:53;39.80;37.00
8664;DHT22;4369;47.842;13.096;2022-07-29T14:50:20;38.10;37.70
8664;DHT22;4369;47.842;13.096;2022-07-29T14:52:47;37.70;42.40
8664;DHT22;4369;47.842;13.096;2022-07-29T14:55:14;38.40;40.10
8664;DHT22;4369;47.842;13.096;2022-07-29T14:57:41;38.60;38.70
8664;DHT22;4369;47.842;13.096;2022-07-29T15:00:11;38.10;36.70
8664;DHT22;4369;47.842;13.096;2022-07-29T15:02:38;37.00;37.80
8664;DHT22;4369;47.842;13.096;2022-07-29T15:05:05;36.30;38.70
8664;DHT22;4369;47.842;13.096;2022-07-29T15:07:32;35.60;42.90
8664;DHT22;4369;47.842;13.096;2022-07-29T15:09:59;35.80;46.40
8664;DHT22;4369;47.842;13.096;2022-07-29T15:12:26;36.30;41.80
8664;DHT22;4369;47.842;13.096;2022-07-29T15:14:53;37.60;40.00
8664;DHT22;4369;47.842;13.096;2022-07-29T15:17:21;38.60;40.50
8664;DHT22;4369;47.842;13.096;2022-07-29T15:19:48;38.00;38.50
8664;DHT22;4369;47.842;13.096;2022-07-29T15:22:15;37.80;41.10
8664;DHT22;4369;47.842;13.096;2022-07-29T15:24:42;37.00;45.40
8664;DHT22;4369;47.842;13.096;2022-07-29T15:27:09;36.10;44.70
8664;DHT22;4369;47.842;13.096;2022-07-29T15:29:40;35.60;44.30
8664;DHT22;4369;47.842;13.096;2022-07-29T15:32:07;35.10;43.90
8664;DHT22;4369;47.842;13.096;2022-07-29T15:34:36;35.90;46.90
8664;DHT22;4369;47.842;13.096;2022-07-29T15:37:03;36.40;45.40
8664;DHT22;4369;47.842;13.096;2022-07-29T15:39:30;36.80;43.70
8664;DHT22;4369;47.842;13.096;2022-07-29T15:41:57;37.10;44.40
8664;DHT22;4369;47.842;13.096;2022-07-29T15:44:24;36.90;41.50
8664;DHT22;4369;47.842;13.096;2022-07-29T15:46:51;36.70;46.10
8664;DHT22;4369;47.842;13.096;2022-07-29T15:49:32;36.20;43.80
8664;DHT22;4369;47.842;13.096;2022-07-29T15:52:01;35.90;45.20
8664;DHT22;4369;47.842;13.096;2022-07-29T15:54:28;35.60;44.30
8664;DHT22;4369;47.842;13.096;2022-07-29T15:56:56;35.00;45.30
8664;DHT22;4369;47.842;13.096;2022-07-29T15:59:23;34.80;45.50
8664;DHT22;4369;47.842;13.096;2022-07-29T16:01:49;34.30;46.20
8664;DHT22;4369;47.842;13.096;2022-07-29T16:04:16;34.20;47.60
8664;DHT22;4369;47.842;13.096;2022-07-29T16:06:44;33.80;47.20
8664;DHT22;4369;47.842;13.096;2022-07-29T16:09:13;33.20;47.20
8664;DHT22;4369;47.842;13.096;2022-07-29T16:11:40;32.80;50.80